createdAt,value
2024-01-22T00:03:44.908Z,2.01
2024-01-22T00:08:43.852Z,2.00
2024-01-22T00:13:42.776Z,2.01
2024-01-22T00:18:41.898Z,2.04
2024-01-22T00:23:40.683Z,2.10
2024-01-22T00:28:39.641Z,2.15
2024-01-22T00:33:38.699Z,2.21
2024-01-22T00:38:37.543Z,2.29
2024-01-22T00:43:36.502Z,2.28
2024-01-22T00:48:35.524Z,2.32
2024-01-22T00:53:34.422Z,2.35
2024-01-22T00:58:33.335Z,2.39
2024-01-22T01:03:32.703Z,2.42
2024-01-22T01:08:31.254Z,2.42
2024-01-22T01:13:30.190Z,2.47
2024-01-22T01:18:29.284Z,2.47
2024-01-22T01:23:28.094Z,2.51
2024-01-22T01:28:27.074Z,2.55
2024-01-22T01:33:26.135Z,2.54
2024-01-22T01:38:24.949Z,2.55
2024-01-22T01:43:23.882Z,2.58
2024-01-22T01:48:22.944Z,2.61
2024-01-22T01:53:21.848Z,2.81
2024-01-22T01:58:20.748Z,2.90
2024-01-22T02:03:19.775Z,2.89
2024-01-22T02:08:18.659Z,2.89
2024-01-22T02:13:17.668Z,2.97
2024-01-22T02:18:16.779Z,3.04
2024-01-22T02:23:15.505Z,3.09
2024-01-22T02:28:14.521Z,3.05
2024-01-22T02:33:13.516Z,3.02
2024-01-22T02:38:12.351Z,3.05
2024-01-22T02:43:11.320Z,3.08
2024-01-22T02:48:10.474Z,3.11
2024-01-22T02:53:09.221Z,3.14
2024-01-22T02:58:08.197Z,3.27
2024-01-22T03:03:07.144Z,3.41
2024-01-22T03:08:06.217Z,3.33
2024-01-22T03:13:05.006Z,3.32
2024-01-22T03:18:04.109Z,3.35
2024-01-22T03:23:02.948Z,3.33
2024-01-22T03:28:01.849Z,3.42
2024-01-22T03:33:00.884Z,3.42
2024-01-22T03:37:59.732Z,3.55
2024-01-22T03:42:58.870Z,3.60
2024-01-22T03:47:57.817Z,3.66
2024-01-22T03:52:56.603Z,3.66
2024-01-22T03:57:55.562Z,3.82
2024-01-22T04:02:54.516Z,3.87
2024-01-22T04:07:53.462Z,3.84
2024-01-22T04:12:52.403Z,3.82
2024-01-22T04:17:51.378Z,3.81
2024-01-22T04:22:50.296Z,3.85
2024-01-22T04:27:49.253Z,3.87
2024-01-22T04:32:48.392Z,3.98
2024-01-22T04:37:47.134Z,4.13
2024-01-22T04:42:46.093Z,4.23
2024-01-22T04:47:45.136Z,4.24
2024-01-22T04:52:43.984Z,4.30
2024-01-22T04:57:42.989Z,4.35
2024-01-22T05:02:42.084Z,4.41
2024-01-22T05:07:40.836Z,4.43
2024-01-22T05:12:39.754Z,4.45
2024-01-22T05:17:38.914Z,4.48
2024-01-22T05:22:37.644Z,4.48
2024-01-22T05:27:36.620Z,4.54
2024-01-22T05:32:35.791Z,4.48
2024-01-22T05:37:34.493Z,4.46
2024-01-22T05:42:33.455Z,4.54
2024-01-22T05:47:32.415Z,4.53
2024-01-22T05:52:31.333Z,4.49
2024-01-22T05:57:30.297Z,4.54
2024-01-22T06:02:29.267Z,4.53
2024-01-22T06:07:28.244Z,4.61
2024-01-22T06:12:27.190Z,4.60
2024-01-22T06:17:26.114Z,4.63
2024-01-22T06:22:25.038Z,4.63
2024-01-22T06:27:24.233Z,4.63
2024-01-22T06:32:23.033Z,4.77
2024-01-22T06:37:21.893Z,4.74
2024-01-22T06:42:27.729Z,4.74
2024-01-22T06:47:19.761Z,4.74
2024-01-22T06:52:18.713Z,4.78
2024-01-22T06:57:17.776Z,4.77
2024-01-22T07:02:16.611Z,4.78
2024-01-22T07:07:15.571Z,4.78
2024-01-22T07:12:14.637Z,4.82
2024-01-22T07:17:13.458Z,4.88
2024-01-22T07:22:12.457Z,4.86
2024-01-22T07:27:11.469Z,4.97
2024-01-22T07:32:10.340Z,4.94
2024-01-22T07:37:09.342Z,4.93
2024-01-22T07:42:08.313Z,4.93
2024-01-22T07:47:07.181Z,4.93
2024-01-22T07:52:06.111Z,4.91
2024-01-22T07:57:05.098Z,5.04
2024-01-22T08:02:04.048Z,5.14
2024-01-22T08:07:03.047Z,5.14
2024-01-22T08:12:01.965Z,5.14
2024-01-22T08:17:00.869Z,5.21
2024-01-22T08:21:59.815Z,5.24
2024-01-22T08:26:58.835Z,5.25
2024-01-22T08:31:57.722Z,5.22
2024-01-22T08:36:56.681Z,5.25
2024-01-22T08:41:55.626Z,5.22
2024-01-22T08:46:54.512Z,5.30
2024-01-22T08:51:53.506Z,5.36
2024-01-22T08:56:52.459Z,5.43
2024-01-22T09:01:51.456Z,5.55
2024-01-22T09:06:50.402Z,5.65
2024-01-22T09:11:49.318Z,5.69
2024-01-22T09:16:48.232Z,5.79
2024-01-22T09:21:47.162Z,5.88
2024-01-22T09:26:46.198Z,5.90
2024-01-22T09:31:45.110Z,5.91
2024-01-22T09:36:43.998Z,5.91
2024-01-22T09:41:43.021Z,5.93
2024-01-22T09:46:41.946Z,5.97
2024-01-22T09:51:41.179Z,6.08
2024-01-22T09:56:39.888Z,6.02
2024-01-22T10:01:38.725Z,6.11
2024-01-22T10:06:38.239Z,6.18
2024-01-22T10:11:36.644Z,6.30
2024-01-22T10:16:35.645Z,6.38
2024-01-22T10:21:34.600Z,6.45
2024-01-22T10:26:33.494Z,6.50
2024-01-22T10:31:32.598Z,6.53
2024-01-22T10:36:31.466Z,6.53
2024-01-22T10:41:30.380Z,6.64
2024-01-22T10:46:29.348Z,6.64
2024-01-22T10:51:28.255Z,6.71
2024-01-22T10:56:28.241Z,6.78
2024-01-22T11:01:27.967Z,6.81
2024-01-22T11:06:25.606Z,6.78
2024-01-22T11:11:24.051Z,6.89
2024-01-22T11:16:23.083Z,6.97
2024-01-22T11:21:21.965Z,6.96
2024-01-22T11:26:20.932Z,6.99
2024-01-22T11:31:19.820Z,7.00
2024-01-22T11:36:18.818Z,7.01
2024-01-22T11:41:17.722Z,7.11
2024-01-22T11:46:16.951Z,7.18
2024-01-22T11:51:15.664Z,7.18
2024-01-22T11:56:14.607Z,7.21
2024-01-22T12:01:13.547Z,7.21
2024-01-22T12:06:12.630Z,7.25
2024-01-22T12:11:11.461Z,7.34
2024-01-22T12:16:10.429Z,7.37
2024-01-22T12:21:09.379Z,7.43
2024-01-22T12:26:08.306Z,7.47
2024-01-22T12:31:08.634Z,7.50
2024-01-22T12:36:06.492Z,7.49
2024-01-22T12:41:05.130Z,7.54
2024-01-22T12:46:04.093Z,7.57
2024-01-22T12:51:03.030Z,7.64
2024-01-22T12:56:01.990Z,7.69
2024-01-22T13:01:00.947Z,7.71
2024-01-22T13:05:59.949Z,7.73
2024-01-22T13:10:58.813Z,7.83
2024-01-22T13:16:11.703Z,7.81
2024-01-22T13:20:56.736Z,7.87
2024-01-22T13:25:55.679Z,7.95
2024-01-22T13:30:54.679Z,7.87
2024-01-22T13:35:53.680Z,7.92
2024-01-22T13:40:52.693Z,7.94
2024-01-22T13:45:51.478Z,7.95
2024-01-22T13:50:50.418Z,7.96
2024-01-22T13:55:49.604Z,8.01
2024-01-22T14:00:48.377Z,8.05
2024-01-22T14:05:47.451Z,8.10
2024-01-22T14:10:46.285Z,8.14
2024-01-22T14:15:45.169Z,8.17
2024-01-22T14:20:44.105Z,8.20
2024-01-22T14:25:43.024Z,8.24
2024-01-22T14:30:42.016Z,8.21
2024-01-22T14:35:41.111Z,8.24
2024-01-22T14:40:39.896Z,8.24
2024-01-22T14:45:38.851Z,8.26
2024-01-22T14:50:37.802Z,8.24
2024-01-22T14:55:36.753Z,8.20
2024-01-22T15:00:35.780Z,8.19
2024-01-22T15:05:34.652Z,8.20
2024-01-22T15:10:33.639Z,8.23
2024-01-22T15:15:32.575Z,8.21
2024-01-22T15:20:31.463Z,8.14
2024-01-22T15:25:30.473Z,8.16
2024-01-22T15:30:29.465Z,8.19
2024-01-22T15:35:28.372Z,8.16
2024-01-22T15:40:27.278Z,8.14
2024-01-22T15:45:26.328Z,8.12
2024-01-22T15:50:25.218Z,8.09
2024-01-22T15:55:24.116Z,8.06
2024-01-22T16:00:23.135Z,8.06
2024-01-22T16:05:22.050Z,8.02
2024-01-22T16:10:21.011Z,7.95
2024-01-22T16:15:19.926Z,7.86
2024-01-22T16:20:18.959Z,7.83
2024-01-22T16:25:19.391Z,7.77
2024-01-22T16:30:16.833Z,7.76
2024-01-22T16:35:15.822Z,7.74
2024-01-22T16:40:14.651Z,7.71
2024-01-22T16:45:13.724Z,7.69
2024-01-22T16:50:12.593Z,7.68
2024-01-22T16:55:12.886Z,7.61
2024-01-22T17:00:10.495Z,7.61
2024-01-22T17:05:09.408Z,7.60
2024-01-22T17:10:08.367Z,7.57
2024-01-22T17:15:07.270Z,7.55
2024-01-22T17:20:06.255Z,7.50
2024-01-22T17:25:05.252Z,7.50
2024-01-22T17:30:04.246Z,7.50
2024-01-22T17:35:03.093Z,7.46
2024-01-22T17:40:02.204Z,7.46
2024-01-22T17:45:01.032Z,7.44
2024-01-22T17:50:00.033Z,7.43
2024-01-22T17:54:58.926Z,7.39
2024-01-22T17:59:57.913Z,7.36
2024-01-22T18:04:56.749Z,7.33
2024-01-22T18:09:55.743Z,7.28
2024-01-22T18:14:54.685Z,7.22
2024-01-22T18:19:53.651Z,7.18
2024-01-22T18:24:52.568Z,7.15
2024-01-22T18:29:51.544Z,7.10
2024-01-22T18:34:50.622Z,7.07
2024-01-22T18:39:49.402Z,7.04
2024-01-22T18:44:48.391Z,7.03
2024-01-22T18:49:47.533Z,7.00
2024-01-22T18:54:46.309Z,6.97
2024-01-22T18:59:45.177Z,6.93
2024-01-22T19:04:44.415Z,6.91
2024-01-22T19:09:43.123Z,6.93
2024-01-22T19:14:42.064Z,6.92
2024-01-22T19:19:41.037Z,6.92
2024-01-22T19:24:39.943Z,6.91
2024-01-22T19:29:38.943Z,6.89
2024-01-22T19:34:37.991Z,6.88
2024-01-22T19:39:36.858Z,6.82
2024-01-22T19:44:35.715Z,6.81
2024-01-22T19:49:34.691Z,6.79
2024-01-22T19:54:33.805Z,6.75
2024-01-22T19:59:32.584Z,6.71
2024-01-22T20:04:31.560Z,6.73
2024-01-22T20:09:30.485Z,6.73
2024-01-22T20:14:29.483Z,6.70
2024-01-22T20:19:28.478Z,6.70
2024-01-22T20:24:27.335Z,6.67
2024-01-22T20:29:27.285Z,6.64
2024-01-22T20:34:25.384Z,6.63
2024-01-22T20:39:24.238Z,6.57
2024-01-22T20:44:23.128Z,6.55
2024-01-22T20:49:22.133Z,6.55
2024-01-22T20:54:21.015Z,6.56
2024-01-22T20:59:19.926Z,6.61
2024-01-22T21:04:18.952Z,6.61
2024-01-22T21:09:17.908Z,6.64
2024-01-22T21:14:16.882Z,6.65
2024-01-22T21:19:15.975Z,6.65
2024-01-22T21:24:14.711Z,6.63
2024-01-22T21:29:13.669Z,6.61
2024-01-22T21:34:12.824Z,6.60
2024-01-22T21:39:12.212Z,6.57
2024-01-22T21:44:10.507Z,6.56
2024-01-22T21:49:09.574Z,6.56
2024-01-22T21:54:08.398Z,6.55
2024-01-22T21:59:07.395Z,6.55
2024-01-22T22:04:06.380Z,6.55
2024-01-22T22:09:05.284Z,6.55
2024-01-22T22:14:04.204Z,6.56
2024-01-22T22:19:03.223Z,6.56
2024-01-22T22:24:02.262Z,6.56
2024-01-22T22:29:01.259Z,6.53
2024-01-22T22:34:00.106Z,6.53
2024-01-22T22:38:58.935Z,6.53
2024-01-22T22:43:57.892Z,6.49
2024-01-22T22:48:56.881Z,6.45
2024-01-22T22:53:56.315Z,6.40
2024-01-22T22:58:54.718Z,6.37
2024-01-22T23:03:53.915Z,6.34
2024-01-22T23:08:52.653Z,6.35
2024-01-22T23:13:51.662Z,6.32
2024-01-22T23:18:50.718Z,6.35
2024-01-22T23:23:49.698Z,6.37
2024-01-22T23:28:48.402Z,6.37
2024-01-22T23:33:47.526Z,6.37
2024-01-22T23:38:46.313Z,6.40
2024-01-22T23:43:45.302Z,6.40
2024-01-22T23:48:44.296Z,6.42
2024-01-22T23:53:43.243Z,6.37
2024-01-22T23:58:42.162Z,6.34
